Time;durP1;ratioP1;P1;durP2;ratioP2;P2;SDS_P1;SDS_P2;PMS_P1;PMS_P2;Temp;Humidity;BMP_temperature;BMP_pressure;BME280_temperature;BME280_humidity;BME280_pressure;Samples;Min_cycle;Max_cycle;Signal;HPM_P1;HPM_P2
2022/09/26 00:01:36;;;;;;;3.57;2.93;;;12.50;99.90;;;;;;5037224;28;20309;-69
2022/09/26 00:04:06;;;;;;;4.50;2.97;;;12.50;99.90;;;;;;5028903;28;20205;-70
2022/09/26 00:06:32;;;;;;;5.20;2.97;;;12.50;99.90;;;;;;5026664;28;20266;-71
2022/09/26 00:08:57;;;;;;;9.97;3.30;;;12.50;99.90;;;;;;5029007;28;20252;-69
2022/09/26 00:11:26;;;;;;;6.40;3.00;;;12.50;99.90;;;;;;5045794;28;20190;-71
2022/09/26 00:13:54;;;;;;;2.87;2.67;;;12.50;99.90;;;;;;5012536;28;20212;-69
2022/09/26 00:16:20;;;;;;;7.03;3.90;;;12.50;99.90;;;;;;5031789;28;20253;-68
2022/09/26 00:18:53;;;;;;;3.90;3.50;;;12.50;99.90;;;;;;5026393;28;20198;-61
2022/09/26 00:21:19;;;;;;;5.40;3.47;;;12.50;99.90;;;;;;5036833;28;20275;-67
2022/09/26 00:23:45;;;;;;;4.07;3.60;;;12.40;99.90;;;;;;5030986;28;20566;-68
2022/09/26 00:26:13;;;;;;;4.67;3.60;;;12.40;99.90;;;;;;5041330;28;20193;-68
2022/09/26 00:28:39;;;;;;;7.53;3.47;;;12.40;99.90;;;;;;5031890;28;20569;-68
2022/09/26 00:31:08;;;;;;;5.20;3.20;;;12.40;99.90;;;;;;5037451;28;20369;-68
2022/09/26 00:33:34;;;;;;;3.40;3.10;;;12.30;99.90;;;;;;5024207;28;20573;-68
2022/09/26 00:35:59;;;;;;;4.23;3.50;;;12.30;99.90;;;;;;5026507;28;20192;-68
2022/09/26 00:38:25;;;;;;;3.57;3.10;;;12.30;99.90;;;;;;5032588;28;20199;-69
2022/09/26 00:40:50;;;;;;;10.17;3.57;;;12.30;99.90;;;;;;5035008;28;20210;-68
2022/09/26 00:43:37;;;;;;;6.17;3.20;;;12.30;99.90;;;;;;5034858;28;20290;-68
2022/09/26 00:46:26;;;;;;;5.00;3.30;;;12.30;99.90;;;;;;5018028;28;20596;-69
2022/09/26 00:49:16;;;;;;;7.97;3.73;;;12.30;99.90;;;;;;5030949;28;20206;-69
2022/09/26 00:51:45;;;;;;;4.50;3.80;;;12.20;99.90;;;;;;5029854;28;20259;-68
2022/09/26 00:54:15;;;;;;;4.63;3.47;;;12.20;99.90;;;;;;5016126;28;20849;-68
2022/09/26 00:56:44;;;;;;;4.47;3.43;;;12.20;99.90;;;;;;5033391;28;20206;-69
2022/09/26 00:59:39;;;;;;;4.53;3.70;;;12.20;99.90;;;;;;5020311;28;20220;-69
2022/09/26 01:02:05;;;;;;;5.50;3.90;;;12.20;99.90;;;;;;5012810;28;20747;-69
2022/09/26 01:04:33;;;;;;;7.23;4.53;;;12.10;99.90;;;;;;5024856;28;20204;-68
2022/09/26 01:07:01;;;;;;;9.67;4.67;;;12.10;99.90;;;;;;5025997;28;20188;-69
2022/09/26 01:09:28;;;;;;;5.83;4.83;;;12.10;99.90;;;;;;5019479;28;20256;-70
2022/09/26 01:11:55;;;;;;;4.60;4.13;;;12.10;99.90;;;;;;5030241;28;20193;-69
2022/09/26 01:14:21;;;;;;;7.23;4.90;;;12.00;99.90;;;;;;5023684;28;20268;-69
2022/09/26 01:16:49;;;;;;;5.30;4.57;;;12.00;99.90;;;;;;5038814;28;20198;-68
2022/09/26 01:19:51;;;;;;;7.20;4.07;;;12.00;99.90;;;;;;5027535;28;20201;-68
2022/09/26 01:22:38;;;;;;;6.20;4.17;;;12.00;99.90;;;;;;5020458;28;20218;-67
2022/09/26 01:25:32;;;;;;;5.47;4.63;;;12.00;99.90;;;;;;5013547;28;20190;-68
2022/09/26 01:28:27;;;;;;;6.63;4.03;;;12.00;99.90;;;;;;5018407;28;20226;-68
2022/09/26 01:31:02;;;;;;;4.17;3.40;;;12.00;99.90;;;;;;5027710;28;20210;-69
2022/09/26 01:33:48;;;;;;;5.07;3.67;;;12.00;99.90;;;;;;5022274;28;20217;-69
2022/09/26 01:36:22;;;;;;;4.67;3.77;;;12.00;99.90;;;;;;5014525;28;20195;-69
2022/09/26 01:39:23;;;;;;;6.10;4.00;;;12.00;99.90;;;;;;5020937;28;20285;-69
2022/09/26 01:42:12;;;;;;;3.83;3.30;;;12.00;99.90;;;;;;5025381;28;20228;-69
2022/09/26 01:44:46;;;;;;;5.07;3.63;;;12.00;99.90;;;;;;5017612;28;20804;-69
2022/09/26 01:47:39;;;;;;;3.47;3.23;;;12.00;99.90;;;;;;5013938;28;20193;-69
2022/09/26 01:50:15;;;;;;;5.67;4.10;;;12.00;99.90;;;;;;5008859;28;20268;-69
2022/09/26 01:52:50;;;;;;;4.27;3.87;;;12.00;99.90;;;;;;5012216;28;20229;-68
2022/09/26 01:55:24;;;;;;;3.73;3.43;;;12.00;99.90;;;;;;5029565;28;20192;-68
2022/09/26 01:57:57;;;;;;;4.37;3.93;;;11.90;99.90;;;;;;5028720;28;20672;-68
2022/09/26 02:00:22;;;;;;;3.67;3.30;;;12.00;99.90;;;;;;5021055;28;20222;-68
2022/09/26 02:02:49;;;;;;;7.33;4.07;;;12.00;99.90;;;;;;5032832;28;20680;-68
2022/09/26 02:05:42;;;;;;;4.90;3.40;;;12.00;99.90;;;;;;5022257;28;20271;-69
2022/09/26 02:08:18;;;;;;;4.33;3.33;;;12.00;99.90;;;;;;5013794;28;20693;-70
2022/09/26 02:10:54;;;;;;;7.57;3.90;;;12.00;99.90;;;;;;5026216;28;20186;-70
2022/09/26 02:13:24;;;;;;;5.27;3.53;;;12.00;99.90;;;;;;5040477;28;20252;-70
2022/09/26 02:15:54;;;;;;;5.33;3.37;;;11.90;99.90;;;;;;5015454;28;20216;-68
2022/09/26 02:18:27;;;;;;;6.90;3.77;;;11.90;99.90;;;;;;5032567;28;20728;-67
2022/09/26 02:21:02;;;;;;;3.73;3.30;;;11.90;99.90;;;;;;5036262;28;20209;-70
2022/09/26 02:23:27;;;;;;;4.00;3.13;;;11.90;99.90;;;;;;5021950;28;20205;-70
2022/09/26 02:25:53;;;;;;;3.37;3.03;;;11.90;99.90;;;;;;5027486;28;20180;-70
2022/09/26 02:28:20;;;;;;;3.70;2.57;;;11.90;99.90;;;;;;5041399;28;20198;-69
2022/09/26 02:30:48;;;;;;;4.47;3.03;;;11.90;99.90;;;;;;5036012;28;20186;-68
2022/09/26 02:33:13;;;;;;;4.23;2.70;;;12.00;99.90;;;;;;5037519;28;20558;-67
2022/09/26 02:35:54;;;;;;;5.93;3.53;;;12.00;99.90;;;;;;5028914;28;20198;-69
2022/09/26 02:38:30;;;;;;;3.80;3.50;;;12.10;99.90;;;;;;5015816;28;20345;-68
2022/09/26 02:41:10;;;;;;;3.40;2.80;;;12.10;99.90;;;;;;5028367;28;20254;-69
2022/09/26 02:43:43;;;;;;;4.90;3.40;;;12.10;99.90;;;;;;5026704;28;20198;-69
2022/09/26 02:46:57;;;;;;;3.83;2.77;;;12.00;99.90;;;;;;5020953;28;20194;-69
2022/09/26 02:49:59;;;;;;;6.80;3.20;;;12.00;99.90;;;;;;4974038;28;20211;-68
2022/09/26 02:52:50;;;;;;;3.50;2.73;;;12.00;99.90;;;;;;5033719;28;20248;-69
2022/09/26 02:55:26;;;;;;;2.97;2.77;;;12.00;99.90;;;;;;5009489;28;20410;-69
2022/09/26 02:58:19;;;;;;;4.27;3.07;;;12.00;99.90;;;;;;5009645;28;20276;-68
2022/09/26 03:01:09;;;;;;;7.37;3.60;;;12.10;99.90;;;;;;5027758;28;20171;-67
2022/09/26 03:03:42;;;;;;;5.57;3.00;;;12.00;99.90;;;;;;5021989;28;20202;-67
2022/09/26 03:06:12;;;;;;;4.73;3.03;;;12.00;99.90;;;;;;5011873;28;20269;-68
2022/09/26 03:08:45;;;;;;;4.00;2.70;;;12.00;99.90;;;;;;5029752;28;20198;-66
2022/09/26 03:11:15;;;;;;;3.17;2.80;;;12.00;99.90;;;;;;5024783;28;20208;-69
2022/09/26 03:13:42;;;;;;;8.50;3.37;;;11.90;99.90;;;;;;5037815;28;20208;-69
2022/09/26 03:16:09;;;;;;;3.40;3.10;;;11.90;99.90;;;;;;5030444;28;20210;-67
2022/09/26 03:18:40;;;;;;;2.83;2.63;;;11.90;99.90;;;;;;5033330;28;20222;-68
2022/09/26 03:21:05;;;;;;;5.20;2.80;;;11.90;99.90;;;;;;5042879;28;20208;-69
2022/09/26 03:23:31;;;;;;;5.33;2.67;;;11.90;99.90;;;;;;5038134;28;20211;-69
2022/09/26 03:26:16;;;;;;;3.57;3.27;;;11.90;99.90;;;;;;5027467;28;20214;-68
2022/09/26 03:28:41;;;;;;;3.20;3.00;;;11.90;99.90;;;;;;5037162;28;20880;-69
2022/09/26 03:31:07;;;;;;;3.83;3.40;;;11.90;99.90;;;;;;5019944;28;20195;-67
2022/09/26 03:33:33;;;;;;;4.00;3.17;;;11.90;99.90;;;;;;5026834;28;20254;-66
2022/09/26 03:35:59;;;;;;;4.40;2.93;;;11.90;99.90;;;;;;5015198;28;20197;-69
2022/09/26 03:38:25;;;;;;;3.57;3.27;;;11.90;99.90;;;;;;5039139;28;20646;-68
2022/09/26 03:40:52;;;;;;;4.60;2.93;;;11.90;99.90;;;;;;5027441;28;20298;-67
2022/09/26 03:43:17;;;;;;;4.83;2.60;;;11.90;99.90;;;;;;5035758;28;20194;-69
2022/09/26 03:45:43;;;;;;;4.83;3.03;;;11.90;99.90;;;;;;5027871;28;20249;-76
2022/09/26 03:48:08;;;;;;;4.57;3.27;;;11.90;99.90;;;;;;5028374;28;20186;-73
2022/09/26 03:50:34;;;;;;;2.43;2.20;;;11.90;99.90;;;;;;5045975;28;20230;-69
2022/09/26 03:53:00;;;;;;;3.63;3.27;;;11.90;99.90;;;;;;5034191;28;20201;-71
2022/09/26 03:55:26;;;;;;;4.10;3.37;;;11.80;99.90;;;;;;5020917;28;20182;-69
2022/09/26 03:57:52;;;;;;;4.63;2.67;;;11.80;99.90;;;;;;5035659;28;20199;-72
2022/09/26 04:00:17;;;;;;;5.90;3.37;;;11.80;99.90;;;;;;5024266;28;20261;-69
2022/09/26 04:02:43;;;;;;;3.73;3.00;;;11.80;99.90;;;;;;5040770;28;20207;-70
2022/09/26 04:05:09;;;;;;;4.97;2.77;;;11.70;99.90;;;;;;5025539;28;20188;-67
2022/09/26 04:07:34;;;;;;;5.13;3.30;;;11.70;99.90;;;;;;5030127;28;20187;-69
2022/09/26 04:10:00;;;;;;;4.27;3.77;;;11.70;99.90;;;;;;5022525;28;20257;-72
2022/09/26 04:12:26;;;;;;;6.67;3.27;;;11.60;99.90;;;;;;5038811;28;20224;-68
2022/09/26 04:14:53;;;;;;;3.77;3.23;;;11.60;99.90;;;;;;5028165;28;20210;-68
2022/09/26 04:17:18;;;;;;;5.70;3.30;;;11.50;99.90;;;;;;5033809;28;20196;-65
2022/09/26 04:19:44;;;;;;;7.60;3.13;;;11.40;99.90;;;;;;5029675;28;20560;-63
2022/09/26 04:22:09;;;;;;;3.73;3.43;;;11.40;99.90;;;;;;5029201;28;20227;-63
2022/09/26 04:24:35;;;;;;;3.53;3.10;;;11.40;99.90;;;;;;5022213;28;20243;-64
2022/09/26 04:27:01;;;;;;;6.87;3.37;;;11.40;99.90;;;;;;5028539;28;20215;-68
2022/09/26 04:29:27;;;;;;;5.00;3.40;;;11.30;99.90;;;;;;5031789;28;20291;-72
2022/09/26 04:31:53;;;;;;;8.43;3.40;;;11.30;99.90;;;;;;5031519;28;20223;-71
2022/09/26 04:34:20;;;;;;;4.23;3.03;;;11.30;99.90;;;;;;5025787;28;20241;-66
2022/09/26 04:36:48;;;;;;;4.60;3.90;;;11.30;99.90;;;;;;5040835;28;20197;-66
2022/09/26 04:39:13;;;;;;;3.93;3.33;;;11.30;99.90;;;;;;5033190;28;20231;-65
2022/09/26 04:41:39;;;;;;;4.17;2.73;;;11.20;99.90;;;;;;5031777;28;20265;-65
2022/09/26 04:44:06;;;;;;;3.97;3.17;;;11.10;99.90;;;;;;5026357;28;20243;-66
2022/09/26 04:46:34;;;;;;;4.53;3.03;;;11.10;99.90;;;;;;5032455;28;20205;-66
2022/09/26 04:49:01;;;;;;;5.63;3.30;;;11.00;99.90;;;;;;5028763;28;20549;-65
2022/09/26 04:51:31;;;;;;;4.27;3.87;;;11.00;99.90;;;;;;5033499;28;20241;-66
2022/09/26 04:53:58;;;;;;;4.13;3.30;;;11.00;99.90;;;;;;5022718;28;20214;-65
2022/09/26 04:56:26;;;;;;;6.57;3.97;;;10.90;99.90;;;;;;5011461;28;20243;-64
2022/09/26 04:58:55;;;;;;;6.23;4.00;;;10.90;99.90;;;;;;5024951;28;20216;-65
2022/09/26 05:01:21;;;;;;;5.03;3.57;;;10.90;99.90;;;;;;5009810;28;20199;-65
2022/09/26 05:03:47;;;;;;;4.17;3.40;;;10.90;99.90;;;;;;5036810;28;20201;-65
2022/09/26 05:06:14;;;;;;;8.33;3.70;;;10.80;99.90;;;;;;5016872;28;20192;-66
2022/09/26 05:08:43;;;;;;;9.30;4.40;;;10.80;99.90;;;;;;5034878;28;20246;-66
2022/09/26 05:11:09;;;;;;;7.10;3.60;;;10.80;99.90;;;;;;5023201;28;20583;-66
2022/09/26 05:13:36;;;;;;;4.40;3.70;;;10.80;99.90;;;;;;5039290;28;20596;-65
2022/09/26 05:16:02;;;;;;;7.77;3.60;;;10.80;99.90;;;;;;5018363;28;20246;-65
2022/09/26 05:18:28;;;;;;;3.87;3.27;;;10.90;99.90;;;;;;5029932;28;20288;-66
2022/09/26 05:20:55;;;;;;;10.43;3.90;;;10.90;99.90;;;;;;5019323;28;20292;-65
2022/09/26 05:26:39;;;;;;;7.03;4.17;;;10.80;99.90;;;;;;5013525;28;20228;-65
2022/09/26 05:29:04;;;;;;;3.93;3.53;;;10.80;99.90;;;;;;5023193;28;20213;-65
2022/09/26 05:31:35;;;;;;;4.73;4.23;;;10.90;99.90;;;;;;5014080;28;20182;-65
2022/09/26 05:34:06;;;;;;;8.33;3.93;;;10.90;99.90;;;;;;5018835;28;20202;-65
2022/09/26 05:36:32;;;;;;;4.37;3.93;;;10.90;99.90;;;;;;5014236;28;20190;-65
2022/09/26 05:38:58;;;;;;;5.50;3.97;;;10.90;99.90;;;;;;5030916;28;20232;-65
2022/09/26 05:41:30;;;;;;;4.53;3.97;;;11.00;99.90;;;;;;5018814;28;20239;-65
2022/09/26 05:43:56;;;;;;;5.13;3.83;;;11.00;99.90;;;;;;5019711;28;20201;-65
2022/09/26 05:46:22;;;;;;;6.00;4.20;;;11.00;99.90;;;;;;5011311;28;20675;-65
2022/09/26 05:48:47;;;;;;;5.50;4.03;;;11.00;99.90;;;;;;5024155;28;20210;-65
2022/09/26 05:51:16;;;;;;;5.07;3.80;;;11.00;99.90;;;;;;5032553;28;20227;-65
2022/09/26 05:53:44;;;;;;;7.37;4.30;;;11.10;99.90;;;;;;5038202;28;20207;-64
2022/09/26 05:56:11;;;;;;;5.93;4.17;;;11.10;99.90;;;;;;5024714;28;20729;-65
2022/09/26 05:58:38;;;;;;;7.33;4.50;;;11.20;99.90;;;;;;5033171;28;20193;-65
2022/09/26 06:01:08;;;;;;;5.87;4.00;;;11.30;99.90;;;;;;5021517;28;20584;-65
2022/09/26 06:03:34;;;;;;;9.50;4.27;;;11.30;99.90;;;;;;5035311;28;20667;-65
2022/09/26 06:06:06;;;;;;;5.07;4.20;;;11.20;99.90;;;;;;5024987;28;20190;-65
2022/09/26 06:08:34;;;;;;;6.77;4.23;;;11.30;99.90;;;;;;5023371;28;20197;-64
2022/09/26 06:11:05;;;;;;;9.37;4.50;;;11.30;99.90;;;;;;5038395;28;20187;-65
2022/09/26 06:13:31;;;;;;;5.67;3.93;;;11.30;99.90;;;;;;5027390;28;20199;-64
2022/09/26 06:16:06;;;;;;;5.80;4.10;;;11.40;99.90;;;;;;5014500;28;20287;-65
2022/09/26 06:18:32;;;;;;;5.90;4.10;;;11.40;99.90;;;;;;5037067;28;20196;-65
2022/09/26 06:21:06;;;;;;;8.07;4.03;;;11.50;99.90;;;;;;5025010;28;20210;-65
2022/09/26 06:23:33;;;;;;;5.07;4.47;;;11.60;99.90;;;;;;5023011;28;20238;-66
2022/09/26 06:25:59;;;;;;;7.97;4.30;;;11.70;99.90;;;;;;5025122;28;20224;-66
2022/09/26 06:28:25;;;;;;;4.67;3.57;;;11.80;99.90;;;;;;5034313;28;20228;-65
2022/09/26 06:30:52;;;;;;;4.63;3.70;;;11.90;99.90;;;;;;5014618;28;20210;-65
2022/09/26 06:33:18;;;;;;;7.10;3.77;;;12.00;99.90;;;;;;5025815;28;20242;-66
2022/09/26 06:35:43;;;;;;;6.83;3.57;;;12.10;99.90;;;;;;5014958;28;20202;-66
2022/09/26 06:38:09;;;;;;;3.50;3.30;;;12.20;99.90;;;;;;5031196;28;20548;-66
2022/09/26 06:40:35;;;;;;;4.43;4.00;;;12.20;99.90;;;;;;5019336;28;20197;-66
2022/09/26 06:43:00;;;;;;;4.37;3.40;;;12.30;99.90;;;;;;5031896;28;20211;-67
2022/09/26 06:45:26;;;;;;;6.97;3.63;;;12.30;99.90;;;;;;5025426;28;20199;-66
2022/09/26 06:47:52;;;;;;;8.20;3.83;;;12.40;99.90;;;;;;5041456;28;20193;-66
2022/09/26 06:50:17;;;;;;;5.43;3.00;;;12.50;99.90;;;;;;5026487;28;20561;-66
2022/09/26 06:52:43;;;;;;;5.67;4.23;;;12.50;99.90;;;;;;5039852;28;20277;-66
2022/09/26 06:55:10;;;;;;;5.93;3.93;;;12.60;99.90;;;;;;5027055;28;20203;-66
2022/09/26 06:57:38;;;;;;;6.70;3.80;;;12.70;99.90;;;;;;5043730;28;20691;-66
2022/09/26 07:00:06;;;;;;;4.10;3.77;;;12.70;99.90;;;;;;5033679;28;20238;-66
2022/09/26 07:02:32;;;;;;;5.67;4.57;;;12.80;99.90;;;;;;5032457;28;20222;-66
2022/09/26 07:04:58;;;;;;;5.97;5.20;;;12.80;99.90;;;;;;5024555;28;20205;-66
2022/09/26 07:07:24;;;;;;;7.03;5.00;;;12.80;99.90;;;;;;5045006;28;20280;-66
2022/09/26 07:09:50;;;;;;;7.33;4.43;;;12.80;99.90;;;;;;5034458;28;20747;-66
2022/09/26 07:12:15;;;;;;;8.23;5.63;;;12.90;99.90;;;;;;5030224;28;20198;-67
2022/09/26 07:14:41;;;;;;;5.07;4.63;;;13.00;99.90;;;;;;5035613;28;20307;-66
2022/09/26 07:17:12;;;;;;;5.70;5.20;;;13.00;99.90;;;;;;5029432;28;20661;-66
2022/09/26 07:19:37;;;;;;;8.57;4.93;;;13.10;99.90;;;;;;5013999;28;20214;-66
2022/09/26 07:22:06;;;;;;;8.80;4.70;;;13.30;99.90;;;;;;5031211;28;20749;-66
2022/09/26 07:24:33;;;;;;;6.13;5.03;;;13.30;99.90;;;;;;5025947;28;20198;-67
2022/09/26 07:26:59;;;;;;;9.07;4.90;;;13.30;99.90;;;;;;5015522;28;20179;-66
2022/09/26 07:29:25;;;;;;;8.87;4.73;;;13.40;99.90;;;;;;5038703;28;20187;-66
2022/09/26 07:31:51;;;;;;;6.67;4.73;;;13.40;99.90;;;;;;5010935;28;20689;-66
2022/09/26 07:34:16;;;;;;;5.43;4.23;;;13.50;99.90;;;;;;5039480;28;20195;-66
2022/09/26 07:36:42;;;;;;;4.67;3.60;;;13.50;99.90;;;;;;5015462;28;20192;-66
2022/09/26 07:39:07;;;;;;;5.37;3.40;;;13.50;99.90;;;;;;5036896;28;20624;-66
2022/09/26 07:41:32;;;;;;;4.63;3.10;;;13.60;99.90;;;;;;5027552;28;20211;-66
2022/09/26 07:43:58;;;;;;;3.53;2.67;;;13.60;99.90;;;;;;5031741;28;20189;-67
2022/09/26 07:51:56;;;;;;;4.57;2.40;;;13.80;99.90;;;;;;5039102;28;20249;-67
2022/09/26 07:54:22;;;;;;;1.87;1.70;;;13.70;99.90;;;;;;5025608;28;20256;-66
2022/09/26 07:56:48;;;;;;;4.43;2.23;;;13.80;99.90;;;;;;5027050;28;20187;-68
2022/09/26 07:59:13;;;;;;;5.83;2.47;;;13.80;99.90;;;;;;5035804;28;20572;-67
2022/09/26 08:01:39;;;;;;;5.13;2.43;;;13.80;99.90;;;;;;5021213;28;20701;-68
2022/09/26 08:04:05;;;;;;;5.87;2.30;;;13.90;99.90;;;;;;5026406;28;20365;-67
2022/09/26 08:06:33;;;;;;;3.20;1.70;;;13.90;99.90;;;;;;5026574;28;20276;-67
2022/09/26 08:08:59;;;;;;;3.40;1.87;;;13.80;99.90;;;;;;5029484;28;20194;-67
2022/09/26 08:11:26;;;;;;;3.70;2.30;;;13.80;99.90;;;;;;5020788;28;20195;-66
2022/09/26 08:13:52;;;;;;;2.30;2.10;;;13.90;99.90;;;;;;5042841;28;20191;-69
2022/09/26 08:16:19;;;;;;;5.53;2.83;;;14.00;99.90;;;;;;5021802;28;20180;-68
2022/09/26 08:18:45;;;;;;;5.20;2.20;;;14.20;99.90;;;;;;5036568;28;20209;-68
2022/09/26 08:21:10;;;;;;;1.80;1.67;;;14.30;99.90;;;;;;5021064;28;20215;-68
2022/09/26 08:23:36;;;;;;;1.87;1.60;;;14.30;99.90;;;;;;5030830;28;20470;-71
2022/09/26 08:26:03;;;;;;;2.83;1.50;;;14.30;99.90;;;;;;5018675;28;20208;-70
2022/09/26 08:28:29;;;;;;;3.40;2.20;;;14.30;99.90;;;;;;5037518;28;20293;-69
2022/09/26 08:30:59;;;;;;;2.90;1.50;;;14.40;99.90;;;;;;5024715;28;20278;-69
2022/09/26 08:33:25;;;;;;;3.30;1.80;;;14.40;99.90;;;;;;5038638;28;20308;-68
2022/09/26 08:35:50;;;;;;;3.90;1.80;;;14.50;99.90;;;;;;5025703;28;20298;-69
2022/09/26 08:38:16;;;;;;;5.57;1.83;;;14.70;99.90;;;;;;5043993;28;20179;-70
2022/09/26 08:41:00;;;;;;;2.20;2.00;;;14.80;99.90;;;;;;5028441;28;20278;-67
2022/09/26 08:43:38;;;;;;;3.50;2.13;;;14.80;99.90;;;;;;5016402;28;20693;-68
2022/09/26 08:49:17;;;;;;;2.03;1.73;;;14.90;99.90;;;;;;5041737;28;20186;-68
2022/09/26 08:51:48;;;;;;;1.77;1.27;;;14.90;99.90;;;;;;5029110;28;20596;-66
2022/09/26 08:54:18;;;;;;;3.27;1.50;;;15.00;99.90;;;;;;5016020;28;20194;-67
2022/09/26 08:56:51;;;;;;;2.30;1.53;;;15.10;99.90;;;;;;5013407;28;20192;-69
2022/09/26 08:59:38;;;;;;;3.20;1.50;;;15.10;99.90;;;;;;5038288;28;20625;-68
2022/09/26 09:02:11;;;;;;;2.07;1.60;;;15.10;99.90;;;;;;5022715;28;20242;-70
2022/09/26 09:04:51;;;;;;;4.23;1.57;;;15.00;99.90;;;;;;5015783;28;20279;-70
2022/09/26 09:07:22;;;;;;;2.17;1.60;;;15.00;99.90;;;;;;5015186;28;20710;-70
2022/09/26 09:09:50;;;;;;;3.77;2.13;;;14.90;99.90;;;;;;5035825;28;20210;-70
2022/09/26 09:12:42;;;;;;;2.10;1.60;;;14.90;99.90;;;;;;5009331;28;20195;-70
2022/09/26 09:15:40;;;;;;;1.90;1.30;;;14.80;99.90;;;;;;5013192;28;20710;-70
2022/09/26 09:18:28;;;;;;;1.33;0.90;;;14.80;99.90;;;;;;5031951;28;20351;-69
2022/09/26 09:21:08;;;;;;;1.00;0.90;;;14.90;99.90;;;;;;5019751;28;20202;-70
2022/09/26 09:23:47;;;;;;;1.03;1.03;;;14.90;99.90;;;;;;5011632;28;20278;-69
2022/09/26 09:26:35;;;;;;;0.90;0.73;;;15.00;99.90;;;;;;5013645;28;20590;-70
2022/09/26 09:29:25;;;;;;;3.27;1.27;;;15.00;99.90;;;;;;5020534;28;20934;-70
2022/09/26 09:31:52;;;;;;;1.77;1.00;;;15.00;99.90;;;;;;5017769;28;20658;-71
2022/09/26 09:34:31;;;;;;;2.80;1.50;;;15.00;99.90;;;;;;5017518;28;20204;-72
2022/09/26 09:37:02;;;;;;;1.33;0.87;;;15.00;99.90;;;;;;5013795;28;20188;-74
2022/09/26 09:39:34;;;;;;;1.43;1.10;;;15.20;99.90;;;;;;5018380;28;20211;-68
2022/09/26 09:42:15;;;;;;;1.07;1.00;;;15.20;99.90;;;;;;5018797;28;20577;-68
2022/09/26 09:44:46;;;;;;;1.70;0.90;;;15.20;99.90;;;;;;5016972;28;20252;-80
2022/09/26 09:47:17;;;;;;;2.10;0.93;;;15.20;99.90;;;;;;5041575;28;20252;-69
2022/09/26 09:49:44;;;;;;;1.70;0.90;;;15.40;99.90;;;;;;5014426;28;20206;-69
2022/09/26 09:52:56;;;;;;;1.40;0.87;;;15.50;99.90;;;;;;5024902;28;20258;-72
2022/09/26 09:55:37;;;;;;;2.07;0.90;;;15.70;99.90;;;;;;5020963;28;20239;-69
2022/09/26 09:58:22;;;;;;;1.53;0.80;;;15.80;99.90;;;;;;5018039;28;20216;-69
2022/09/26 10:01:08;;;;;;;1.67;1.20;;;16.00;99.90;;;;;;5013820;28;20207;-69
2022/09/26 10:03:54;;;;;;;7.23;1.10;;;16.10;99.90;;;;;;5016675;28;20175;-70
2022/09/26 10:06:21;;;;;;;1.67;0.77;;;16.20;99.90;;;;;;5013988;28;20191;-67
2022/09/26 10:08:49;;;;;;;2.67;0.93;;;16.10;99.90;;;;;;5018066;28;20311;-68
2022/09/26 10:11:27;;;;;;;2.63;1.00;;;16.10;99.90;;;;;;5014689;28;20196;-70
2022/09/26 10:13:55;;;;;;;3.93;1.43;;;16.00;99.90;;;;;;5016268;28;20192;-67
2022/09/26 10:16:21;;;;;;;2.10;0.93;;;16.00;99.90;;;;;;5021146;28;20268;-69
2022/09/26 10:19:05;;;;;;;2.93;1.60;;;16.10;99.90;;;;;;5022723;28;20200;-65
2022/09/26 10:21:39;;;;;;;2.23;1.47;;;15.90;99.90;;;;;;5017366;28;20214;-65
2022/09/26 10:24:21;;;;;;;2.33;1.30;;;16.00;99.90;;;;;;5018590;28;20642;-67
2022/09/26 10:26:48;;;;;;;0.90;0.90;;;16.00;99.90;;;;;;5015893;28;20183;-66
2022/09/26 10:29:23;;;;;;;2.20;1.37;;;16.10;99.90;;;;;;5030045;28;20270;-65
2022/09/26 10:31:59;;;;;;;2.50;1.37;;;16.30;99.90;;;;;;5018225;28;20352;-66
2022/09/26 10:34:32;;;;;;;2.37;1.40;;;16.50;99.90;;;;;;5035394;28;20195;-66
2022/09/26 10:37:21;;;;;;;1.50;1.40;;;16.60;99.90;;;;;;5028965;28;20191;-66
2022/09/26 10:42:40;;;;;;;5.43;1.47;;;16.60;99.90;;;;;;5018146;28;20230;-68
2022/09/26 10:45:14;;;;;;;1.67;1.23;;;16.40;99.90;;;;;;5019724;28;20725;-67
2022/09/26 10:47:44;;;;;;;2.30;1.20;;;16.20;99.90;;;;;;5017790;28;20191;-67
2022/09/26 10:50:15;;;;;;;1.40;1.27;;;16.10;99.90;;;;;;5019793;28;21069;-66
2022/09/26 10:52:48;;;;;;;1.33;1.10;;;16.20;99.90;;;;;;5019909;28;20215;-65
2022/09/26 10:55:25;;;;;;;3.70;1.40;;;16.20;99.90;;;;;;5022155;28;20211;-67
2022/09/26 10:57:57;;;;;;;1.73;1.20;;;16.20;99.90;;;;;;5020188;28;20188;-66
2022/09/26 11:00:39;;;;;;;2.00;1.00;;;16.20;99.90;;;;;;5020280;28;20214;-67
2022/09/26 11:03:18;;;;;;;2.40;1.40;;;16.20;99.90;;;;;;5015086;28;20265;-67
2022/09/26 11:05:55;;;;;;;1.47;1.23;;;16.20;99.90;;;;;;5027735;28;20218;-67
2022/09/26 11:08:27;;;;;;;1.37;1.20;;;16.20;99.90;;;;;;5017783;28;20189;-67
2022/09/26 11:10:54;;;;;;;1.13;0.97;;;16.30;99.90;;;;;;5020270;28;20729;-67
2022/09/26 11:13:28;;;;;;;1.40;1.00;;;16.30;99.90;;;;;;5042214;28;20190;-67
2022/09/26 11:16:09;;;;;;;2.30;1.10;;;16.50;99.80;;;;;;5031791;28;20199;-68
2022/09/26 11:18:44;;;;;;;1.67;0.80;;;16.70;99.90;;;;;;5020349;28;20194;-70
2022/09/26 11:21:14;;;;;;;0.97;0.90;;;17.00;99.00;;;;;;5017118;28;20214;-69
2022/09/26 11:24:10;;;;;;;1.37;1.00;;;17.10;97.90;;;;;;5036021;28;20215;-69
2022/09/26 11:27:04;;;;;;;1.50;1.13;;;17.30;98.10;;;;;;5025512;28;20230;-67
2022/09/26 11:29:54;;;;;;;1.00;0.90;;;17.20;97.50;;;;;;5030969;28;20191;-67
2022/09/26 11:32:41;;;;;;;3.13;1.17;;;17.30;97.30;;;;;;5021745;28;20187;-67
2022/09/26 11:35:13;;;;;;;1.13;0.80;;;17.50;96.90;;;;;;5014254;28;20203;-66
2022/09/26 11:38:04;;;;;;;2.33;0.90;;;17.70;96.70;;;;;;5027602;28;20184;-68
2022/09/26 11:40:54;;;;;;;1.23;0.87;;;17.90;97.00;;;;;;5016862;28;20223;-70
2022/09/26 11:43:48;;;;;;;1.57;1.07;;;17.90;96.30;;;;;;5018039;28;20266;-73
2022/09/26 11:46:35;;;;;;;2.60;1.10;;;17.90;96.80;;;;;;5019024;28;20207;-71
2022/09/26 11:49:25;;;;;;;1.20;1.10;;;17.90;96.00;;;;;;5018360;28;20714;-69
2022/09/26 11:52:13;;;;;;;2.10;1.10;;;17.80;95.80;;;;;;5015041;28;20239;-68
2022/09/26 11:54:56;;;;;;;4.13;1.00;;;17.90;96.50;;;;;;5015963;28;20662;-68
2022/09/26 11:57:42;;;;;;;1.97;0.93;;;17.80;96.00;;;;;;5021972;28;20289;-67
2022/09/26 12:00:23;;;;;;;2.67;1.10;;;17.80;96.00;;;;;;5016802;28;20200;-67
2022/09/26 12:03:00;;;;;;;0.97;0.90;;;17.70;96.10;;;;;;5045261;28;20227;-74
2022/09/26 12:05:31;;;;;;;1.17;1.13;;;17.70;97.00;;;;;;5012229;28;20222;-71
2022/09/26 12:08:24;;;;;;;3.33;1.33;;;17.50;96.10;;;;;;5011551;28;20189;-70
2022/09/26 12:10:55;;;;;;;1.93;1.27;;;17.70;96.30;;;;;;5020966;28;20208;-69
2022/09/26 12:13:51;;;;;;;3.80;1.37;;;18.20;95.90;;;;;;5018152;28;20211;-70
2022/09/26 12:16:45;;;;;;;2.77;1.50;;;19.00;94.60;;;;;;5019520;28;20741;-71
2022/09/26 12:19:31;;;;;;;2.83;1.30;;;19.50;93.10;;;;;;5021989;28;20799;-71
2022/09/26 12:22:37;;;;;;;3.20;1.30;;;19.60;92.70;;;;;;5016058;28;20203;-72
2022/09/26 12:25:09;;;;;;;2.23;1.37;;;19.40;93.00;;;;;;5001629;28;20223;-76
2022/09/26 12:28:02;;;;;;;2.97;1.40;;;19.00;94.00;;;;;;5004293;28;20598;-83
2022/09/26 12:30:57;;;;;;;2.57;1.40;;;18.60;92.50;;;;;;5014004;28;20221;-75
2022/09/26 12:33:38;;;;;;;1.17;1.10;;;18.00;93.00;;;;;;5019689;28;20516;-69
2022/09/26 12:36:39;;;;;;;4.63;1.50;;;17.90;93.30;;;;;;5024188;28;20206;-70
2022/09/26 12:39:35;;;;;;;1.90;1.20;;;17.80;94.00;;;;;;5017045;28;20220;-71
2022/09/26 12:42:25;;;;;;;3.63;1.30;;;17.60;94.70;;;;;;5013096;28;20304;-70
2022/09/26 12:45:15;;;;;;;3.27;1.17;;;17.50;94.40;;;;;;5010006;28;20751;-70
2022/09/26 12:48:08;;;;;;;3.20;1.33;;;17.30;94.60;;;;;;5022889;28;20187;-75
2022/09/26 12:50:53;;;;;;;1.90;1.00;;;17.20;95.40;;;;;;5015086;28;20251;-69
2022/09/26 12:53:36;;;;;;;1.43;1.30;;;17.30;95.20;;;;;;5018408;28;20282;-69
2022/09/26 12:56:53;;;;;;;2.40;1.27;;;17.30;95.10;;;;;;5019217;28;20610;-69
2022/09/26 12:59:24;;;;;;;3.40;1.40;;;17.50;95.00;;;;;;5021760;28;20563;-71
2022/09/26 13:02:27;;;;;;;4.50;1.53;;;17.70;95.00;;;;;;5017925;28;20228;-71
2022/09/26 13:05:14;;;;;;;3.27;1.60;;;17.80;94.70;;;;;;5017348;28;20187;-75
2022/09/26 13:07:45;;;;;;;1.20;1.10;;;17.80;94.50;;;;;;5019591;28;20176;-72
2022/09/26 13:10:31;;;;;;;4.17;1.57;;;17.70;94.50;;;;;;5021235;28;20195;-75
2022/09/26 13:13:31;;;;;;;5.53;1.87;;;17.80;94.70;;;;;;5016405;28;20532;-77
2022/09/26 13:16:14;;;;;;;2.63;1.33;;;17.80;94.30;;;;;;5028359;28;20685;-69
2022/09/26 13:18:50;;;;;;;2.87;1.30;;;18.00;94.50;;;;;;5022715;28;20550;-74
2022/09/26 13:21:24;;;;;;;2.37;1.20;;;18.10;93.70;;;;;;5023424;28;20225;-69
2022/09/26 13:23:53;;;;;;;4.53;1.70;;;18.30;93.80;;;;;;5018822;28;20533;-70
2022/09/26 13:26:43;;;;;;;3.63;1.43;;;18.30;93.50;;;;;;5018650;28;20204;-75
2022/09/26 13:29:15;;;;;;;1.87;1.03;;;18.40;93.50;;;;;;5024873;28;20222;-69
2022/09/26 13:32:11;;;;;;;4.13;1.23;;;18.40;92.90;;;;;;5013988;28;20204;-70
2022/09/26 13:34:46;;;;;;;2.93;1.60;;;18.60;93.40;;;;;;5012650;28;20191;-71
2022/09/26 13:37:37;;;;;;;2.80;1.40;;;19.40;93.10;;;;;;5013139;28;20886;-71